Date,TemperatureHighF,TemperatureAvgF,TemperatureLowF,DewpointHighF,DewpointAvgF,DewpointLowF,HumidityHigh,HumidityAvg,HumidityLow,PressureMaxIn,PressureMinIn,WindSpeedMaxMPH,WindSpeedAvgMPH,GustSpeedMaxMPH,PrecipitationSumIn
2013-1-1,56.4,42.5,31.9,36.8,31.8,26.3,94,69,33,30.31,30.21,20,4,20,0.00
2013-1-2,59.9,40.5,27.3,38.3,31.8,24.9,93,75,37,30.26,30.15,9,2,9,0.00
2013-1-3,60.6,39.4,27.1,39.9,32.9,25.1,95,81,42,30.30,30.19,6,1,6,0.00
2013-1-4,61.4,42.3,30.3,42.5,36.0,28.8,95,81,45,30.31,30.18,7,1,7,0.00
2013-1-5,50.9,42.0,33.0,46.1,39.0,31.1,95,90,75,30.28,30.09,10,1,10,0.48
2013-1-6,55.9,46.4,36.2,45.0,42.1,34.8,95,86,65,30.21,30.09,12,2,12,0.03
2013-1-7,59.9,44.4,33.7,47.6,40.5,32.3,96,87,60,30.27,30.16,6,1,6,0.00
2013-1-8,62.4,45.9,38.0,51.3,42.8,36.7,96,90,65,30.26,30.14,9,1,9,0.01
2013-1-9,50.5,44.0,37.8,47.2,40.5,33.8,96,88,63,30.17,29.98,22,3,22,0.02
2013-1-10,54.7,40.6,30.3,37.2,33.0,28.8,95,76,43,30.20,30.07,10,3,10,0.00
2013-1-11,53.4,38.5,27.6,39.1,32.8,25.7,94,81,53,30.27,30.12,8,1,8,0.00
2013-1-12,53.0,39.9,29.3,34.3,29.4,23.1,93,69,37,30.27,30.15,9,2,9,0.00
2013-1-13,53.2,38.3,23.1,29.6,20.9,9.2,94,57,20,30.29,30.18,21,4,21,0.00
2013-1-14,57.6,44.7,31.4,29.8,19.4,11.4,83,40,19,30.42,30.26,21,7,21,0.00
2013-1-15,53.9,38.1,27.0,35.2,30.3,24.6,93,76,47,30.50,30.41,12,2,12,0.00
2013-1-16,61.4,40.2,27.1,40.1,33.3,25.6,95,79,42,30.47,30.28,8,1,8,0.00
2013-1-17,67.4,42.0,25.0,43.6,34.5,23.5,95,79,35,30.29,30.15,8,2,8,0.01
2013-1-18,69.3,43.7,26.2,42.0,33.8,24.3,95,73,33,30.25,30.14,8,1,8,0.00
2013-1-19,72.7,47.1,30.9,39.7,31.6,26.4,89,62,22,30.26,30.16,10,2,10,0.00
2013-1-20,70.0,46.2,29.2,40.4,32.9,24.6,88,64,27,30.25,30.12,8,2,8,0.00
2013-1-21,69.0,46.4,30.4,41.4,34.5,27.0,90,67,31,30.19,30.10,10,2,10,0.00
2013-1-22,68.5,47.6,30.9,43.2,35.9,27.9,91,68,29,30.13,30.01,7,2,7,0.00
2013-1-23,52.2,48.9,45.4,49.4,44.7,39.1,94,86,74,30.11,29.97,9,2,9,0.44
2013-1-24,63.7,53.4,48.3,55.3,50.3,46.7,94,90,69,30.20,30.08,12,2,12,0.00
2013-1-25,66.0,55.9,47.7,56.3,51.4,46.3,95,86,65,30.21,30.05,10,2,10,0.00
2013-1-26,62.1,49.7,42.1,50.2,43.8,39.0,95,83,44,30.06,29.96,15,2,15,0.01
2013-1-27,57.6,46.5,38.8,37.2,35.6,32.4,85,67,39,30.18,30.10,7,2,7,0.01
2013-1-28,61.1,46.8,34.5,43.1,37.8,32.1,93,73,41,30.29,30.17,12,3,12,0.00
2013-1-29,65.6,47.5,36.1,46.1,39.6,33.7,92,76,46,30.37,30.26,12,2,12,0.00
2013-1-30,66.7,50.4,37.1,48.9,43.0,35.3,94,78,50,30.36,30.26,12,3,12,0.00
2013-1-31,68.8,48.5,32.6,50.0,41.8,31.2,96,81,45,30.32,30.19,10,2,10,0.00
2013-2-1,73.3,51.2,35.6,48.1,41.8,34.1,95,74,34,30.23,30.11,8,2,8,0.01
2013-2-2,63.9,46.5,38.5,50.5,42.2,36.4,94,86,56,30.32,30.22,9,1,9,0.00
2013-2-3,62.4,48.2,37.8,51.3,44.5,36.1,95,88,66,30.27,30.14,10,1,10,0.00
2013-2-4,55.6,44.0,37.2,49.8,42.0,35.8,96,93,80,30.19,30.08,9,1,9,0.01
2013-2-5,63.9,49.5,43.9,50.1,44.2,39.6,95,83,57,30.17,30.04,12,2,12,0.01
2013-2-6,64.0,46.9,34.0,45.3,39.9,32.5,95,79,43,30.21,30.10,9,2,9,0.00
2013-2-7,59.4,46.6,36.8,47.6,38.8,31.1,95,77,37,30.17,30.01,15,4,15,0.06
2013-2-8,59.4,46.1,33.9,39.9,31.7,21.3,94,63,24,30.03,29.94,26,6,26,0.00
2013-2-9,61.9,50.0,36.3,35.5,27.2,17.7,83,45,19,30.11,30.00,17,5,17,0.00
2013-2-10,64.3,44.6,28.4,42.4,35.0,26.1,93,72,37,30.15,30.01,14,2,14,0.00
2013-2-11,69.3,51.7,36.4,37.7,31.8,26.2,88,51,22,30.25,30.09,17,5,17,0.00
2013-2-12,66.0,46.8,32.7,42.6,37.6,30.3,94,74,37,30.38,30.25,12,2,12,0.00
2013-2-13,65.0,47.2,31.9,49.6,40.5,30.3,95,80,53,30.36,30.21,12,2,12,0.00
2013-2-14,74.8,50.2,33.2,49.8,41.1,31.8,95,75,37,30.26,30.15,13,2,13,0.00
2013-2-15,75.7,54.2,35.6,47.0,40.2,32.9,93,66,24,30.27,30.21,12,2,12,0.00
2013-2-16,72.0,53.2,40.4,49.0,43.7,37.9,92,73,38,30.26,30.05,10,2,10,0.00
2013-2-17,65.6,48.1,32.9,48.4,41.1,31.4,95,79,51,30.07,29.96,13,2,13,0.00
2013-2-18,58.1,45.4,33.9,44.0,39.5,32.1,95,81,56,30.04,29.93,12,2,12,0.00
2013-2-19,50.4,43.1,34.0,42.9,36.4,31.0,93,78,50,29.96,29.74,21,4,21,0.19
2013-2-20,63.7,45.7,31.0,39.6,33.4,28.7,93,68,29,30.06,29.86,17,4,17,0.00
2013-2-21,66.8,48.2,33.2,38.5,33.0,23.1,92,62,21,30.18,30.06,22,5,22,0.00
2013-2-22,68.8,49.3,33.6,44.5,38.8,30.9,93,71,31,30.26,30.15,9,2,9,0.00
2013-2-23,61.7,49.8,36.1,42.0,32.7,18.3,95,58,20,30.27,30.16,21,6,21,0.00
2013-2-24,68.2,53.4,37.9,35.2,25.9,13.5,84,38,12,30.28,30.15,26,8,26,0.00
2013-2-25,70.2,49.0,33.5,46.3,38.5,30.3,91,71,33,30.29,30.16,12,3,12,0.00
2013-2-26,72.2,54.4,36.4,39.1,26.9,15.9,89,42,12,30.24,30.13,20,6,20,0.00
2013-2-27,69.8,51.0,32.8,44.2,35.9,28.5,87,61,25,30.36,30.22,10,2,10,0.00
2013-2-28,75.0,57.3,44.9,56.8,48.6,41.6,93,75,46,30.45,30.36,9,2,9,0.00
2013-3-1,76.5,56.8,41.1,55.4,48.3,39.8,95,77,43,30.44,30.24,9,2,9,0.00
2013-3-2,75.3,59.3,47.3,55.3,50.6,45.2,93,75,43,30.26,30.05,9,3,9,0.00
2013-3-3,72.0,56.6,44.6,53.0,48.6,41.9,91,76,45,30.09,29.99,13,3,13,0.00
2013-3-4,62.9,49.5,39.9,51.0,44.7,37.5,93,84,55,30.17,30.04,12,2,12,0.00
2013-3-5,57.4,46.2,32.1,47.4,40.5,30.5,95,82,59,30.08,29.82,17,5,17,0.34
2013-3-6,59.1,50.3,38.9,47.7,41.3,35.9,92,73,46,30.06,29.82,22,6,22,0.28
2013-3-7,57.9,46.7,35.1,42.4,38.1,33.5,95,74,50,30.01,29.88,8,2,8,0.00
2013-3-8,68.3,50.1,37.1,45.4,39.4,30.8,92,71,26,30.04,29.83,14,3,14,0.00
2013-3-9,72.5,53.1,36.6,44.3,37.4,23.0,94,63,18,30.31,30.04,21,5,21,0.00
2013-3-10,70.8,53.5,34.8,47.0,40.8,32.4,93,66,37,30.36,30.23,13,3,13,0.00
2013-3-11,74.0,54.2,36.0,50.6,43.2,33.8,94,70,40,30.27,30.09,12,2,12,0.00
2013-3-12,76.7,56.5,39.8,55.6,48.1,38.2,95,76,46,30.17,30.05,12,2,12,0.00
2013-3-13,83.3,60.2,40.5,58.1,49.2,38.8,95,72,28,30.17,30.05,7,2,7,0.00
2013-3-14,73.8,59.1,45.1,59.2,51.9,43.4,95,78,58,30.16,30.08,9,2,9,0.00
2013-3-15,74.0,56.6,43.7,56.8,48.3,41.3,93,76,48,30.14,30.01,9,2,9,0.00
2013-3-16,78.3,57.7,40.8,56.1,45.1,35.3,95,69,23,30.11,29.99,17,3,17,0.00
2013-3-17,74.4,57.2,42.0,46.9,42.1,35.1,88,61,25,30.16,30.02,15,3,15,0.00
2013-3-18,69.5,54.1,39.7,51.3,44.8,37.5,93,73,45,30.12,30.01,10,3,10,0.00
2013-3-19,66.3,53.9,43.0,49.6,45.5,39.9,94,75,44,30.13,30.07,9,2,9,0.03
2013-3-20,60.1,52.9,47.9,56.3,50.2,45.6,94,91,81,30.13,30.07,10,3,10,0.27
2013-3-21,70.8,53.5,39.4,47.9,42.9,37.4,94,72,33,30.14,30.00,13,3,13,0.00
2013-3-22,69.7,56.5,42.4,42.7,26.2,12.4,88,38,12,30.14,30.03,24,8,24,0.00
2013-3-23,75.8,58.3,42.3,43.2,32.0,18.6,76,40,14,30.16,30.03,12,4,12,0.00
2013-3-24,74.4,55.3,38.2,52.1,44.1,36.1,93,69,34,30.11,29.95,12,3,12,0.00
2013-3-25,64.7,50.6,37.8,50.1,43.8,36.1,95,79,55,30.03,29.93,13,3,13,0.00
2013-3-26,70.9,54.8,43.9,50.6,45.1,41.3,93,73,43,30.02,29.92,12,3,12,0.00
2013-3-27,65.3,53.4,42.1,52.8,46.9,39.8,94,80,61,30.03,29.96,10,2,10,0.00
2013-3-28,66.2,56.3,48.5,55.3,50.5,46.0,92,82,64,30.10,30.02,12,2,12,0.00
2013-3-29,82.2,61.3,42.6,56.3,50.0,40.8,95,71,32,30.11,30.00,13,3,13,0.01
2013-3-30,67.5,58.8,54.3,59.0,53.8,51.3,92,84,66,30.08,29.99,12,3,12,0.12
2013-3-31,68.8,57.9,52.9,56.1,53.1,49.6,94,85,56,30.09,30.01,15,3,15,0.34
2013-4-1,66.6,57.4,49.6,56.8,52.8,47.4,95,85,63,30.16,30.06,14,2,14,0.09
2013-4-2,75.5,56.9,46.4,59.0,50.6,44.8,95,81,52,30.20,30.07,10,2,10,0.00
2013-4-3,79.3,59.0,46.1,58.2,50.8,44.3,95,78,38,30.15,29.97,12,4,12,0.00
2013-4-4,65.1,56.7,51.1,57.4,53.1,49.1,94,88,74,30.12,29.99,13,4,13,0.72
2013-4-5,68.8,58.6,52.1,54.5,51.6,49.0,93,79,56,30.17,30.10,15,4,15,0.00
2013-4-6,72.3,58.6,52.5,57.9,52.0,48.9,91,80,49,30.19,30.10,13,4,13,0.00
2013-4-7,67.7,57.1,50.7,55.1,49.5,43.7,92,77,51,30.18,29.80,17,5,17,0.04
2013-4-8,70.3,57.2,44.6,47.7,35.9,12.5,84,51,12,30.04,29.79,35,11,35,0.08
2013-4-9,77.2,63.3,48.6,44.7,34.3,24.3,67,38,15,30.11,30.03,25,11,25,0.00
2013-4-10,91.1,71.0,53.4,54.6,47.5,38.8,72,46,25,30.17,29.98,17,5,17,0.00
2013-4-11,78.7,64.0,50.4,53.4,49.2,43.7,85,61,32,30.03,29.81,16,5,16,0.00
2013-4-12,80.0,59.2,42.3,56.5,47.1,35.7,94,69,24,29.93,29.80,12,3,12,0.00
2013-4-13,78.5,59.2,43.7,54.0,47.6,40.3,93,69,41,29.90,29.77,12,2,12,0.00
2013-4-14,77.0,58.5,43.7,46.4,41.2,34.5,78,55,28,29.92,29.79,25,7,25,0.00
2013-4-15,65.8,53.5,42.8,45.1,38.0,30.2,89,59,30,29.95,29.82,22,7,22,0.00
2013-4-16,67.9,57.1,43.3,35.0,26.4,14.4,66,35,13,30.18,29.95,26,11,26,0.00
2013-4-17,70.5,60.9,51.0,31.2,25.5,16.3,43,28,13,30.29,30.18,26,10,26,0.00
2013-4-18,82.3,65.3,48.8,43.9,34.3,27.7,64,33,18,30.26,30.15,16,5,16,0.00
2013-4-19,84.8,63.6,43.2,55.0,46.1,39.1,88,57,31,30.24,30.04,14,4,14,0.00
2013-4-20,87.5,67.6,49.0,49.1,42.4,30.1,77,45,14,30.11,29.95,15,5,15,0.00
2013-4-21,89.8,67.1,45.6,53.0,47.4,42.5,90,55,24,30.03,29.91,12,2,12,0.00
2013-4-22,90.1,72.3,52.2,48.7,38.9,14.9,80,39,7,29.96,29.82,17,6,17,0.00
2013-4-23,88.2,71.7,54.1,44.1,28.1,14.6,68,24,7,29.93,29.82,24,10,24,0.00
2013-4-24,72.8,56.4,42.3,55.1,47.2,39.6,93,73,50,29.96,29.81,16,4,16,0.00
2013-4-25,76.0,57.7,49.0,53.5,48.1,44.9,88,72,44,30.13,29.96,12,4,12,0.00
2013-4-26,77.4,56.9,43.5,57.0,48.9,41.6,94,77,48,30.24,30.11,14,3,14,0.00
2013-4-27,82.3,60.1,47.7,60.2,51.1,45.3,93,75,45,30.23,30.05,13,4,13,0.00
2013-4-28,88.4,65.5,44.5,60.9,52.7,42.6,94,68,37,30.09,29.86,13,2,13,0.00
2013-4-29,96.0,72.7,51.3,59.3,53.2,48.2,93,56,24,29.91,29.73,10,3,10,0.00
2013-4-30,86.0,71.0,51.6,52.2,29.7,1.3,87,37,4,29.87,29.77,29,8,29,0.00
2013-5-1,86.5,76.0,62.8,43.4,20.5,10.9,49,13,8,30.08,29.86,29,12,29,0.00
2013-5-2,95.2,75.2,50.0,44.5,31.8,14.8,72,26,9,30.14,30.05,17,5,17,0.00
2013-5-3,96.4,70.9,45.3,47.9,41.6,35.1,77,40,15,30.07,29.78,12,2,12,0.00
2013-5-4,92.6,68.8,47.1,54.5,43.2,22.3,87,50,9,29.79,29.53,21,6,21,0.00
2013-5-5,70.5,61.3,54.7,52.6,49.8,48.1,87,67,46,29.82,29.62,16,4,16,0.00
2013-5-6,74.2,60.5,50.5,57.4,52.0,46.6,90,75,45,29.97,29.82,16,3,16,0.03
2013-5-7,74.5,63.5,55.7,55.6,52.0,46.6,91,69,44,30.03,29.96,16,3,16,0.00
2013-5-8,72.8,58.9,50.6,55.8,51.5,48.1,92,78,55,30.13,30.03,13,4,13,0.00
2013-5-9,76.3,59.2,47.7,57.4,51.0,45.2,92,76,50,30.17,30.04,14,4,14,0.00
2013-5-10,78.0,61.2,50.9,60.2,52.8,48.1,91,76,54,30.18,30.07,16,4,16,0.00
2013-5-11,91.5,66.2,48.8,64.3,55.3,46.9,93,72,38,30.15,30.01,12,3,12,0.00
2013-5-12,88.4,66.2,46.9,61.7,52.5,45.1,94,66,37,30.14,29.99,12,3,12,0.00
2013-5-13,83.8,65.1,44.9,62.5,54.0,42.4,93,70,47,30.08,29.92,14,3,14,0.00
2013-5-14,78.5,63.8,49.9,58.2,52.8,47.4,93,69,46,29.97,29.88,16,4,16,0.00
2013-5-15,79.5,60.6,43.4,52.5,48.0,40.9,92,67,36,30.03,29.94,12,3,12,0.00
2013-5-16,78.6,62.9,52.9,54.9,50.3,46.6,82,66,39,30.01,29.91,15,4,15,0.00
2013-5-17,77.4,59.1,41.9,50.0,45.0,37.6,94,64,30,30.06,29.96,12,3,12,0.00
2013-5-18,84.5,63.2,40.6,53.0,46.8,38.2,93,61,27,30.13,30.01,18,4,18,0.00
2013-5-19,87.3,69.6,47.1,49.5,42.6,25.6,88,44,11,30.12,29.95,18,5,18,0.00
2013-5-20,95.3,76.6,53.9,48.3,41.3,33.0,71,32,14,30.00,29.87,15,6,15,0.00
2013-5-21,78.0,63.7,52.1,48.9,44.7,38.3,83,54,25,29.97,29.86,18,6,18,0.00
2013-5-22,75.5,58.2,40.3,42.1,34.0,22.7,71,44,19,30.03,29.86,21,6,21,0.00
2013-5-23,77.8,59.6,41.3,45.7,41.0,36.6,87,54,26,30.00,29.90,13,3,13,0.00
2013-5-24,79.6,60.3,41.3,46.6,42.8,36.8,88,56,25,30.00,29.89,13,4,13,0.00
2013-5-25,78.5,58.5,41.9,51.0,45.9,39.1,92,66,35,30.02,29.93,16,4,16,0.00
2013-5-26,78.1,61.0,43.8,52.8,48.4,41.6,94,67,37,30.10,30.01,21,4,21,0.00
2013-5-27,68.8,57.5,45.8,56.7,51.0,43.1,93,80,64,30.11,29.99,14,2,14,0.03
2013-5-28,81.5,65.2,55.0,58.4,54.8,51.1,94,72,41,30.00,29.89,14,3,14,0.01
2013-5-29,83.0,67.5,55.7,55.3,51.8,46.0,83,60,35,29.94,29.85,14,4,14,0.00
2013-5-30,87.5,65.9,44.6,51.7,47.7,42.1,92,57,26,29.99,29.88,12,3,12,0.00
2013-5-31,96.8,71.4,48.6,56.3,49.4,42.4,88,53,18,30.02,29.86,12,3,12,0.00
2013-6-1,92.3,72.2,50.0,60.1,55.0,46.6,91,59,32,29.93,29.75,12,3,12,0.00
2013-6-2,86.0,67.6,52.4,59.5,54.1,48.6,90,65,40,29.77,29.64,15,4,15,0.00
2013-6-3,82.8,64.2,49.6,59.3,53.0,47.3,93,70,44,29.86,29.73,14,4,14,0.00
2013-6-4,77.9,62.7,49.1,57.0,51.9,46.3,92,70,44,29.96,29.86,13,4,13,0.00
2013-6-5,77.2,63.3,54.5,58.9,53.3,50.1,87,72,50,30.00,29.87,15,5,15,0.00
2013-6-6,84.1,63.8,51.1,61.0,54.1,48.3,92,73,43,29.96,29.81,14,4,14,0.00
2013-6-7,94.3,70.8,51.5,65.8,57.4,49.1,92,67,37,29.89,29.70,12,3,12,0.00
2013-6-8,94.8,71.4,56.2,66.4,59.2,52.9,92,69,37,29.81,29.67,17,5,17,0.00
2013-6-9,71.3,62.5,55.5,57.3,54.4,52.0,89,76,59,29.87,29.81,17,7,17,0.00
2013-6-10,67.2,60.7,54.6,55.7,53.9,50.8,89,79,64,29.97,29.80,14,4,14,0.00
2013-6-11,82.5,65.7,49.7,60.2,54.1,47.6,94,69,44,29.98,29.86,13,3,13,0.00
2013-6-12,87.4,66.9,45.9,55.2,47.7,28.0,93,57,14,29.97,29.87,20,3,20,0.00
2013-6-13,89.7,67.7,43.9,53.2,45.8,39.8,90,51,20,30.08,29.96,15,3,15,0.00
2013-6-14,93.8,73.3,52.5,54.8,44.0,27.9,84,42,10,29.99,29.79,14,5,14,0.00
2013-6-15,75.8,61.6,47.6,57.8,53.0,45.6,94,75,51,29.98,29.84,21,4,21,0.00
2013-6-16,92.8,67.7,45.4,57.6,50.3,43.4,94,60,26,30.06,29.98,13,3,13,0.00
2013-6-17,86.5,66.6,48.9,56.5,51.5,44.6,89,62,28,30.07,29.96,16,4,16,0.00
2013-6-18,79.2,64.3,50.5,53.9,49.2,39.4,93,62,25,30.01,29.91,22,6,22,0.00
2013-6-19,82.8,65.6,48.2,50.0,46.8,42.6,84,54,29,30.04,29.95,16,4,16,0.00
2013-6-20,88.0,67.8,49.3,51.7,47.8,44.6,85,53,24,30.00,29.88,13,4,13,0.00
2013-6-21,91.6,68.2,46.3,55.0,49.7,42.6,91,57,21,29.98,29.87,17,3,17,0.00
2013-6-22,95.7,71.1,49.0,59.5,51.6,41.6,93,57,17,29.93,29.78,12,3,12,0.00
2013-6-23,73.2,64.0,55.2,61.2,56.5,51.8,90,77,65,29.85,29.79,13,3,13,0.00
2013-6-24,66.0,60.9,57.7,59.9,56.8,54.3,92,86,72,29.92,29.78,12,3,12,0.05
2013-6-25,70.2,63.6,59.2,65.1,60.9,56.9,94,91,82,29.99,29.89,13,4,13,0.33
2013-6-26,63.4,63.3,63.3,61.3,61.2,61.2,93,93,93,29.98,29.98,5,3,5,0.00
2013-6-28,102.3,87.5,70.3,66.3,62.3,53.1,78,48,20,29.91,29.84,12,4,12,0.00
2013-6-29,105.7,79.9,58.2,70.9,63.4,55.8,93,62,28,29.91,29.75,13,3,12,0.00
2013-6-30,96.2,75.6,59.5,67.3,62.4,56.6,92,67,38,29.84,29.72,15,4,15,0.00
2013-7-1,65.3,59.6,55.9,60.9,56.7,53.6,94,90,83,29.83,29.79,4,0,4,0.00
2013-7-2,89.7,78.3,65.1,66.7,61.7,58.6,81,58,42,29.91,29.83,20,6,20,0.00
2013-7-3,95.2,74.8,59.4,68.2,61.9,56.3,91,67,38,29.91,29.73,15,4,15,0.00
2013-7-4,93.4,76.9,64.7,67.5,63.0,58.1,85,64,41,29.79,29.64,15,5,15,0.00
2013-7-5,75.6,65.1,55.5,59.3,55.3,49.9,88,72,55,29.76,29.67,17,6,17,0.00
2013-7-6,76.2,62.0,56.7,59.6,54.9,52.6,89,79,55,29.82,29.73,18,5,18,0.00
2013-7-7,85.5,66.2,55.9,60.5,56.0,51.7,90,72,38,29.86,29.75,20,4,20,0.00
2013-7-8,87.7,65.7,47.9,60.3,54.3,46.0,94,71,32,29.97,29.86,14,3,14,0.00
2013-7-9,96.7,72.8,50.5,62.3,56.4,48.8,95,63,23,30.03,29.89,12,3,12,0.00
2013-7-10,86.0,67.3,52.8,62.3,55.8,49.8,92,69,43,29.98,29.85,16,5,16,0.00
2013-7-11,78.0,61.8,50.3,59.8,53.6,47.8,93,77,50,29.96,29.84,16,4,16,0.00
2013-7-12,80.9,63.2,53.0,61.1,54.7,50.2,91,76,49,29.95,29.83,16,4,16,0.00
2013-7-13,85.3,65.7,48.1,61.2,54.8,46.5,94,72,40,29.97,29.87,13,4,13,0.00
2013-7-14,81.6,64.0,47.5,61.8,54.6,45.6,94,74,49,30.00,29.86,15,4,15,0.00
2013-7-15,78.4,61.3,50.5,58.8,52.6,48.1,93,75,50,29.93,29.79,15,4,15,0.00
2013-7-16,77.8,62.9,52.8,57.3,53.5,49.9,91,73,49,30.01,29.87,12,3,12,0.00
2013-7-17,83.0,64.0,48.7,62.5,55.5,46.6,94,76,49,30.10,29.99,14,4,14,0.00
2013-7-18,87.0,65.3,52.3,63.2,56.3,50.0,94,76,45,30.08,29.90,15,4,15,0.00
2013-7-19,85.6,66.4,51.8,62.9,57.2,49.4,94,75,45,29.95,29.79,15,4,15,0.00
2013-7-20,84.3,65.6,57.2,62.4,57.0,54.0,90,76,47,29.86,29.71,16,5,16,0.00
2013-7-21,81.3,65.8,56.6,61.3,56.6,53.4,90,74,49,29.88,29.75,15,4,15,0.00
2013-7-22,88.3,67.7,53.3,63.2,56.9,50.5,92,71,35,29.96,29.88,16,3,16,0.00
2013-7-23,84.1,71.6,62.6,62.8,58.7,55.6,85,66,40,29.99,29.92,12,4,12,0.00
2013-7-24,89.8,72.0,55.5,63.4,56.6,52.4,91,63,30,29.98,29.86,13,4,13,0.00
2013-7-25,83.2,68.1,55.5,62.7,56.1,51.9,89,67,47,30.01,29.91,18,5,18,0.00
2013-7-26,84.6,65.1,52.6,63.1,55.6,49.9,92,74,46,30.09,29.97,15,4,15,0.00
2013-7-27,81.2,64.1,52.0,62.3,55.6,49.7,93,76,51,30.02,29.83,14,4,14,0.00
2013-7-28,77.0,61.5,52.5,60.4,54.4,49.8,92,79,54,29.88,29.78,16,4,16,0.00
2013-7-29,75.3,61.7,53.2,58.9,54.0,50.1,90,77,55,30.01,29.84,15,3,15,0.00
2013-7-30,79.8,63.5,54.0,61.5,54.9,50.9,90,75,52,30.11,30.00,16,4,16,0.00
2013-7-31,78.2,63.4,52.0,60.0,53.8,49.5,92,73,45,30.09,29.94,14,4,14,0.00
2013-8-1,78.6,62.9,45.9,58.8,53.5,44.0,94,74,48,30.05,29.94,17,4,17,0.00
2013-8-2,82.7,63.6,46.2,60.3,54.2,44.3,94,74,43,29.98,29.86,16,4,16,0.00
2013-8-3,78.0,63.4,55.9,60.0,55.7,52.8,90,77,52,29.99,29.88,14,5,14,0.00
2013-8-4,76.2,61.1,52.6,59.6,53.6,50.0,91,78,55,30.02,29.91,16,4,16,0.00
2013-8-5,79.4,62.3,52.5,60.5,54.2,49.4,90,77,52,30.04,29.90,14,4,14,0.00
2013-8-6,78.8,62.1,51.3,59.2,53.2,48.8,92,75,49,30.05,29.94,16,3,16,0.00
2013-8-7,76.1,63.6,56.6,58.7,54.8,51.6,86,74,54,30.10,30.01,13,5,13,0.00
2013-8-8,82.5,65.6,54.8,59.3,55.4,51.4,89,72,44,30.04,29.90,17,4,17,0.00
2013-8-9,80.1,62.7,53.7,60.0,54.2,50.9,91,76,47,29.99,29.88,15,4,15,0.00
2013-8-10,82.3,65.0,53.5,61.4,56.0,50.6,91,75,46,30.05,29.95,12,4,12,0.00
2013-8-11,81.0,65.0,55.7,62.1,56.7,52.9,93,77,51,30.04,29.90,14,4,14,0.00
2013-8-12,82.7,63.9,49.4,62.6,55.1,47.3,94,75,50,30.01,29.90,13,4,13,0.00
2013-8-13,94.5,69.6,51.4,62.3,54.8,47.3,92,66,23,30.00,29.86,13,3,13,0.00
2013-8-14,87.0,68.6,49.9,61.1,56.3,47.7,93,68,41,29.98,29.85,17,4,17,0.00
2013-8-15,91.2,71.3,53.0,67.2,60.2,50.6,93,72,38,29.95,29.86,12,3,12,0.00
2013-8-16,93.0,73.2,61.5,67.6,60.7,48.1,92,69,24,29.98,29.89,13,4,13,0.00
2013-8-17,80.6,68.0,54.6,63.5,58.6,51.9,92,74,53,29.98,29.82,13,3,13,0.00
2013-8-18,95.7,73.9,58.0,66.0,61.0,55.6,92,68,37,29.90,29.74,12,3,12,0.00
2013-8-19,98.0,73.6,61.9,67.0,62.0,57.1,90,69,36,29.90,29.77,12,3,12,0.00
2013-8-20,83.5,69.1,59.6,63.9,59.1,54.8,88,72,50,29.89,29.78,15,4,15,0.00
2013-8-21,85.5,67.4,55.4,61.4,56.7,52.4,93,71,42,29.93,29.81,13,3,13,0.00
2013-8-22,83.8,65.2,51.5,59.8,54.4,48.8,92,71,40,29.97,29.84,14,3,14,0.00
2013-8-23,80.2,64.1,50.2,61.9,55.7,48.0,93,76,52,29.93,29.77,15,4,15,0.00
2013-8-24,88.3,67.1,49.2,61.3,55.6,47.3,94,70,36,29.88,29.79,17,3,17,0.00
2013-8-25,88.8,69.3,56.2,64.3,58.7,53.3,92,72,38,29.93,29.86,18,3,18,0.00
2013-8-26,87.5,69.5,57.0,61.7,57.4,53.3,91,69,38,30.00,29.86,14,3,14,0.00
2013-8-27,89.8,67.8,50.0,61.7,54.8,47.8,93,68,32,29.90,29.77,13,3,13,0.00
2013-8-28,92.1,68.7,51.6,64.9,58.3,49.6,94,73,39,29.92,29.82,10,3,10,0.00
2013-8-29,91.5,72.5,61.3,65.8,60.9,58.6,93,71,36,30.03,29.92,10,3,10,0.00
2013-8-30,97.3,74.2,55.7,67.1,59.6,53.6,94,66,30,30.03,29.87,12,3,12,0.00
2013-8-31,88.6,69.2,52.5,63.2,56.5,49.9,93,68,33,29.96,29.84,13,4,13,0.00
2013-9-1,86.5,69.2,56.5,60.8,57.6,53.0,90,69,38,29.94,29.83,12,3,12,0.00
2013-9-2,89.7,71.2,56.7,65.2,60.4,54.1,93,71,38,29.94,29.84,13,3,13,0.00
2013-9-3,89.3,67.6,51.2,58.9,55.1,48.7,94,70,27,29.98,29.88,12,2,12,0.00
2013-9-4,89.5,67.2,49.6,61.2,55.3,47.7,94,70,33,30.02,29.88,12,3,12,0.00
2013-9-5,90.5,68.1,49.4,58.3,53.9,45.7,94,67,23,29.99,29.89,12,2,12,0.00
2013-9-6,99.2,71.8,48.3,58.3,51.2,43.3,93,57,16,29.98,29.80,9,2,9,0.00
2013-9-7,99.8,75.0,51.4,58.7,50.3,44.9,84,49,17,29.88,29.76,12,3,12,0.00
2013-9-8,95.2,71.3,51.2,63.3,56.8,48.1,91,65,32,29.88,29.72,12,3,12,0.00
2013-9-9,94.9,71.1,52.1,63.5,57.3,49.6,93,67,33,29.81,29.66,16,4,16,0.00
2013-9-10,78.6,65.1,52.8,63.3,58.0,50.6,94,79,56,29.90,29.73,15,4,15,0.00
2013-9-11,80.4,67.8,63.2,62.3,59.4,57.8,86,75,53,29.99,29.89,15,4,15,0.00
2013-9-12,84.5,68.8,58.6,64.9,59.8,55.6,90,75,49,29.98,29.83,14,4,14,0.00
2013-9-13,82.7,66.0,54.6,63.5,57.2,52.3,93,76,48,29.90,29.71,15,4,15,0.00
2013-9-14,81.1,63.9,50.0,62.3,55.6,47.8,94,77,49,29.82,29.69,14,3,14,0.00
2013-9-15,87.6,66.1,51.2,58.8,55.4,48.8,94,72,34,29.85,29.77,12,3,12,0.00
2013-9-16,85.3,67.1,54.6,63.1,57.2,51.9,94,74,45,29.90,29.74,12,3,12,0.00
2013-9-17,84.1,66.7,49.0,57.1,52.6,46.8,94,65,32,29.87,29.77,18,4,18,0.00
2013-9-18,90.3,69.6,52.2,50.4,46.8,34.3,84,50,16,29.91,29.77,15,3,15,0.00
2013-9-19,92.0,67.4,45.9,55.6,46.6,38.8,88,54,20,29.86,29.71,12,2,12,0.00
2013-9-20,82.0,63.1,42.6,60.7,52.2,38.3,87,69,46,29.83,29.77,15,3,15,0.00
2013-9-21,74.0,63.0,52.9,61.4,57.1,50.0,93,82,51,29.90,29.78,16,4,16,0.28
2013-9-22,77.6,61.2,47.2,56.4,52.0,45.7,95,75,43,30.00,29.89,14,2,14,0.00
2013-9-23,86.2,66.4,49.9,60.8,55.3,47.8,93,71,39,30.03,29.90,14,2,14,0.00
2013-9-24,82.9,66.0,50.1,56.4,51.7,47.6,95,64,33,29.97,29.84,24,5,24,0.00
2013-9-25,76.0,61.4,46.5,49.4,45.1,38.3,91,59,29,29.93,29.79,15,5,15,0.00
2013-9-26,79.0,65.3,53.9,43.9,36.7,28.8,65,37,19,30.00,29.84,20,7,20,0.00
2013-9-27,84.0,66.8,52.1,39.7,36.0,28.7,62,34,15,30.09,29.99,20,4,20,0.00
2013-9-28,85.5,63.6,44.1,54.2,42.6,33.3,85,53,17,30.09,29.98,13,3,13,0.00
2013-9-29,77.0,63.8,50.8,62.4,57.3,48.3,94,80,55,30.10,30.03,12,3,12,0.00
2013-9-30,68.5,68.5,68.5,62.1,62.1,62.1,80,80,80,30.04,30.04,4,4,5,0.00
2013-10-1,68.5,68.5,68.5,62.1,62.1,62.1,80,80,80,30.04,30.04,4,4,5,0.00
2013-10-2,83.0,68.2,47.1,62.1,51.3,40.8,92,59,28,30.04,29.90,18,4,18,0.00
2013-10-3,74.9,63.0,44.6,42.0,33.9,26.3,79,40,17,30.08,29.96,29,11,29,0.00
2013-10-4,81.3,72.3,63.6,29.7,27.3,23.7,26,19,12,30.11,30.02,31,12,31,0.00
2013-10-5,89.2,72.3,51.7,40.1,27.8,22.0,53,21,10,30.19,30.09,15,4,15,0.00
2013-10-6,89.3,65.0,44.6,41.5,36.0,27.8,67,40,12,30.13,29.99,12,2,12,0.00
2013-10-7,88.7,64.8,44.8,46.6,37.2,25.0,70,42,11,30.00,29.84,12,2,12,0.00
2013-10-8,79.0,57.8,39.5,50.3,44.4,34.6,86,64,34,29.92,29.70,13,2,13,0.00
2013-10-9,75.3,56.1,38.2,47.3,41.7,35.9,94,64,25,29.76,29.63,22,3,22,0.00
2013-10-10,72.8,58.9,46.1,52.5,45.9,36.8,91,64,39,30.01,29.75,14,3,14,0.00
2013-10-11,74.8,54.2,40.4,51.8,45.4,38.4,94,75,36,30.10,29.96,9,2,9,0.00
2013-10-12,72.4,53.1,38.2,54.1,45.3,36.1,94,77,50,30.02,29.87,15,2,15,0.00
2013-10-13,77.7,58.1,39.6,45.9,40.2,31.6,93,59,19,30.07,29.92,16,4,16,0.00
2013-10-14,83.0,58.5,37.1,45.2,38.7,32.1,90,55,17,30.13,29.99,12,2,12,0.00
2013-10-15,82.3,59.3,36.2,40.5,32.1,23.1,85,45,12,30.06,29.94,20,4,20,0.00
2013-10-16,84.9,59.8,37.6,40.7,34.2,28.6,76,44,16,30.10,30.01,9,2,9,0.00
2013-10-17,87.0,61.0,40.8,41.2,37.1,32.6,77,47,17,30.11,29.94,12,2,12,0.00
2013-10-18,83.3,59.0,38.4,45.6,39.8,32.8,83,54,23,30.08,29.97,12,2,12,0.00
2013-10-19,87.6,60.8,39.5,47.5,41.2,34.0,88,56,19,30.09,29.97,8,2,8,0.00
2013-10-20,81.7,58.0,37.5,53.3,44.9,33.8,89,66,33,30.03,29.88,12,2,12,0.00
2013-10-21,76.1,54.8,41.1,53.7,47.6,39.1,95,79,44,30.02,29.90,10,2,10,0.00
2013-10-22,80.0,56.4,41.2,54.5,48.2,39.6,95,78,40,30.06,29.90,10,2,10,0.00
2013-10-23,76.2,54.2,42.1,54.9,48.0,40.1,95,82,46,30.00,29.88,12,2,9,0.00
2013-10-24,70.3,52.2,43.9,51.5,47.1,41.6,95,84,51,30.10,29.98,10,2,10,0.00
2013-10-25,75.3,53.6,38.8,53.2,45.8,37.5,95,78,45,30.18,30.07,10,2,10,0.01
2013-10-26,85.0,58.0,38.7,50.3,44.8,36.5,95,68,27,30.16,29.99,8,2,8,0.00
2013-10-27,62.0,47.1,38.0,48.0,42.6,35.1,94,85,60,30.02,29.62,16,1,16,0.00
2013-10-28,66.6,49.4,33.9,47.6,41.9,32.1,95,78,42,29.84,29.66,14,3,14,0.00
2013-10-29,67.5,53.5,43.7,48.2,45.2,40.9,92,75,47,30.06,29.84,9,2,9,0.00
2013-10-30,72.3,51.7,35.6,49.4,42.7,33.6,95,74,42,30.17,30.06,10,2,10,0.00
2013-10-31,74.8,54.4,35.8,49.3,42.9,33.4,94,69,39,30.19,30.05,10,2,10,0.00
2013-11-1,82.3,58.2,40.8,48.0,41.9,37.2,91,61,22,30.17,30.01,7,2,7,0.00
2013-11-2,74.0,56.0,38.5,52.8,44.5,34.9,90,68,39,30.03,29.88,12,2,12,0.00
2013-11-3,68.4,54.5,39.6,43.7,30.7,15.2,79,47,14,30.05,29.91,18,5,18,0.00
2013-11-4,71.3,57.6,36.9,35.6,28.9,21.1,79,39,16,30.10,29.92,26,7,26,0.00
2013-11-5,75.9,62.7,46.0,37.9,34.5,30.3,67,37,24,30.23,30.08,18,5,18,0.00
2013-11-6,77.9,58.0,44.5,42.5,38.0,34.8,72,51,24,30.27,30.17,7,2,7,0.00
2013-11-7,78.6,59.3,45.6,43.2,39.7,37.1,74,52,24,30.19,30.05,9,2,9,0.00
2013-11-8,72.5,51.9,41.5,46.2,39.7,35.6,85,65,37,30.09,29.93,6,1,6,0.00
2013-11-9,78.7,55.4,36.9,51.1,42.6,33.0,91,68,26,30.06,29.95,9,2,9,0.00
2013-11-10,69.2,51.7,38.8,52.0,45.3,36.4,93,81,52,30.13,30.04,10,2,10,0.00
2013-11-11,68.4,51.3,36.9,50.3,44.4,34.8,95,79,49,30.19,30.08,7,2,7,0.00
2013-11-12,75.7,57.6,45.7,48.7,46.3,40.3,84,68,38,30.28,30.16,10,2,9,0.00
2013-11-13,79.5,56.4,38.4,54.6,46.1,35.9,93,72,39,30.25,30.09,9,2,9,0.00
2013-11-14,62.9,49.8,39.7,53.7,46.6,37.8,95,89,71,30.11,29.86,10,1,10,0.00
2013-11-15,72.2,50.1,33.5,43.1,37.9,30.9,93,68,25,29.87,29.70,10,2,10,0.00
2013-11-16,68.9,48.5,32.9,49.2,39.9,29.9,93,75,38,29.93,29.77,14,2,14,0.00
2013-11-17,65.8,48.3,34.2,50.3,42.7,32.4,95,83,57,30.09,29.93,8,2,8,0.00
2013-11-18,61.4,48.3,34.4,48.8,42.8,32.9,95,82,59,30.17,30.07,12,2,12,0.00
2013-11-19,56.6,53.4,48.9,54.8,51.0,44.8,94,92,83,30.11,29.94,8,2,8,0.48
2013-11-20,60.9,56.8,52.6,57.5,54.8,50.6,95,93,88,29.94,29.84,9,2,9,0.28
2013-11-21,62.4,57.1,49.8,51.0,30.2,12.5,95,43,16,30.02,29.90,41,14,41,0.01
2013-11-22,73.1,64.9,57.8,14.3,8.4,1.3,17,11,7,30.04,29.90,44,16,44,0.00
2013-11-23,71.5,59.3,38.4,38.1,23.5,9.4,82,32,11,30.12,29.96,24,6,24,0.00
2013-11-24,67.0,47.0,32.4,43.4,36.6,28.9,89,70,37,30.27,30.11,8,2,8,0.00
2013-11-25,67.3,48.0,36.1,44.6,39.6,34.3,94,76,40,30.34,30.25,8,1,8,0.00
2013-11-26,68.9,49.2,37.9,44.6,39.5,35.3,93,73,34,30.29,30.06,5,1,5,0.00
2013-11-27,71.0,52.3,39.8,44.6,40.2,35.1,85,66,37,30.06,29.85,6,1,6,0.00
2013-11-28,73.2,54.2,41.7,45.0,41.4,37.1,86,65,32,30.08,29.88,13,2,13,0.00
2013-11-29,71.3,51.6,37.1,46.4,41.5,34.4,93,72,39,30.23,30.08,9,2,9,0.00
2013-11-30,70.8,51.1,39.5,48.8,42.5,37.1,93,75,43,30.29,30.18,8,2,8,0.01
2013-12-1,71.2,50.8,36.7,48.6,42.4,34.6,94,76,43,30.34,30.21,12,1,12,0.00
2013-12-2,65.9,50.7,35.0,52.5,44.3,33.4,95,80,57,30.24,29.95,12,2,12,0.00
2013-12-3,59.5,50.3,41.9,50.2,34.9,19.3,91,57,33,29.95,29.84,16,4,16,0.00
2013-12-4,52.7,45.3,40.1,20.7,17.3,10.6,43,33,21,30.08,29.95,14,7,14,0.00
2013-12-5,53.2,40.8,26.3,23.4,18.0,10.9,80,44,20,30.17,30.11,10,2,10,0.00
2013-12-6,48.1,36.8,23.3,45.2,30.9,19.3,94,81,47,30.21,29.92,13,2,13,0.53
2013-12-7,49.2,39.0,29.3,41.7,29.8,20.4,94,73,35,30.28,29.92,20,4,20,0.01
2013-12-8,52.7,36.2,27.7,27.9,22.9,17.7,90,62,30,30.33,30.24,20,3,20,0.00
2013-12-9,56.2,36.7,22.9,27.5,22.4,15.1,86,60,22,30.45,30.31,12,3,12,0.00
2013-12-10,56.2,38.4,25.5,30.7,26.1,20.5,86,65,32,30.45,30.22,12,2,12,0.00
2013-12-11,63.2,40.6,27.0,34.3,29.7,24.0,91,70,29,30.26,30.18,9,2,9,0.00
2013-12-12,62.1,41.1,26.5,36.5,31.2,23.7,92,72,35,30.28,30.16,9,2,9,0.00
2013-12-13,62.3,41.4,28.0,39.8,33.0,25.4,94,75,41,30.36,30.25,9,1,9,0.00
2013-12-14,70.0,44.1,28.8,42.1,34.9,26.5,93,74,31,30.42,30.30,10,2,10,0.00
2013-12-15,64.8,43.8,28.1,41.2,34.9,26.0,94,74,38,30.40,30.25,9,1,9,0.00
2013-12-16,70.7,47.1,30.3,42.0,36.0,27.7,93,70,31,30.27,30.12,10,2,10,0.00
2013-12-17,70.4,47.2,33.2,42.7,36.6,30.3,91,71,32,30.20,30.05,5,1,5,0.00
2013-12-18,63.4,46.9,36.5,46.7,39.6,32.8,94,78,43,30.05,29.75,12,2,12,0.00
2013-12-19,61.0,49.1,32.4,39.7,27.1,11.4,94,51,20,29.95,29.72,29,9,29,0.00
2013-12-20,66.8,53.0,38.4,30.6,16.5,-9.0,66,29,5,30.00,29.92,16,5,16,0.00
2013-12-21,68.8,46.6,32.5,46.7,37.2,26.3,91,72,45,30.10,29.97,7,1,7,0.00
2013-12-22,64.3,45.8,31.1,42.3,37.2,29.2,95,75,42,30.31,30.10,13,2,13,0.00
2013-12-23,70.2,47.9,33.3,45.3,38.6,30.9,94,74,38,30.41,30.31,8,2,8,0.00
2013-12-24,70.4,47.4,34.7,45.6,38.8,31.4,93,76,40,30.36,30.21,9,2,9,0.00
2013-12-25,71.5,46.3,29.2,40.9,34.4,27.2,94,68,29,30.32,30.20,7,2,7,0.00
2013-12-26,61.1,37.6,29.1,36.2,29.8,25.3,89,75,38,30.28,30.22,6,1,6,0.00
2013-12-27,61.8,43.1,32.5,37.2,31.7,27.3,85,68,34,30.26,30.14,6,1,6,0.00
2013-12-28,70.3,49.5,28.5,38.5,30.3,19.2,90,55,19,30.17,30.03,17,4,17,0.00
2013-12-29,72.3,59.3,37.1,32.9,17.8,6.9,59,24,8,30.20,30.09,20,5,20,0.00
2013-12-30,66.5,46.4,31.1,36.3,29.4,22.2,77,54,29,30.27,30.19,9,2,9,0.00
2013-12-31,65.1,45.7,35.0,39.4,33.8,29.1,84,66,37,30.28,30.16,9,2,9,0.00
2014-1-1,65.3,45.7,30.5,36.5,32.2,26.1,88,64,31,30.23,30.13,12,2,12,0.00
2014-1-2,69.4,48.6,32.5,39.9,35.1,28.6,88,63,32,30.20,30.07,7,2,7,0.00